createdAt,value
2023-01-15T00:02:32.044Z,80.30
2023-01-15T00:05:05.214Z,80.17
2023-01-15T00:07:37.856Z,80.28
2023-01-15T00:10:12.451Z,79.99
2023-01-15T00:12:44.758Z,80.46
2023-01-15T00:15:17.334Z,80.28
2023-01-15T00:17:49.675Z,79.87
2023-01-15T00:20:23.026Z,80.19
2023-01-15T00:22:55.867Z,79.74
2023-01-15T00:25:45.731Z,79.90
2023-01-15T00:28:18.188Z,79.47
2023-01-15T00:30:51.557Z,78.99
2023-01-15T00:33:24.148Z,78.88
2023-01-15T00:35:57.415Z,78.47
2023-01-15T00:38:29.875Z,78.47
2023-01-15T00:41:03.600Z,78.73
2023-01-15T00:43:38.566Z,78.49
2023-01-15T00:46:12.280Z,78.54
2023-01-15T00:48:44.779Z,78.39
2023-01-15T00:51:17.397Z,77.73
2023-01-15T00:53:49.764Z,77.96
2023-01-15T00:56:22.238Z,78.05
2023-01-15T00:58:55.224Z,78.02
2023-01-15T01:01:27.895Z,77.54
2023-01-15T01:04:02.864Z,76.87
2023-01-15T01:06:35.327Z,77.62
2023-01-15T01:09:07.701Z,77.41
2023-01-15T01:11:40.043Z,77.10
2023-01-15T01:14:15.682Z,77.14
2023-01-15T01:16:48.585Z,77.01
2023-01-15T01:19:23.523Z,76.86
2023-01-15T01:21:58.532Z,76.45
2023-01-15T01:24:35.103Z,76.46
2023-01-15T01:27:08.418Z,76.71
2023-01-15T01:29:43.824Z,76.44
2023-01-15T01:32:19.251Z,76.39
2023-01-15T01:34:54.011Z,76.56
2023-01-15T01:37:26.625Z,76.41
2023-01-15T01:39:59.019Z,76.19
2023-01-15T01:42:31.522Z,76.32
2023-01-15T01:45:15.959Z,76.43
2023-01-15T01:47:49.088Z,76.31
2023-01-15T01:50:21.737Z,76.16
2023-01-15T01:53:00.782Z,76.15
2023-01-15T01:55:35.979Z,76.21
2023-01-15T01:58:12.097Z,75.99
2023-01-15T02:00:50.164Z,76.05
2023-01-15T02:03:24.999Z,76.01
2023-01-15T02:06:00.986Z,76.26
2023-01-15T02:08:35.121Z,75.82
2023-01-15T02:11:08.735Z,76.00
2023-01-15T02:13:42.767Z,75.96
2023-01-15T02:16:21.141Z,75.86
2023-01-15T02:19:02.114Z,75.61
2023-01-15T02:21:52.010Z,75.87
2023-01-15T02:24:37.587Z,75.86
2023-01-15T02:27:21.938Z,75.74
2023-01-15T02:30:00.616Z,75.78
2023-01-15T02:32:41.154Z,75.77
2023-01-15T02:35:19.708Z,75.72
2023-01-15T02:37:56.527Z,75.57
2023-01-15T02:40:29.732Z,75.36
2023-01-15T02:43:02.410Z,75.82
2023-01-15T02:45:38.436Z,75.55
2023-01-15T02:48:17.854Z,75.62
2023-01-15T02:50:55.940Z,75.35
2023-01-15T02:53:31.660Z,75.65
2023-01-15T02:56:09.097Z,75.49
2023-01-15T02:58:48.538Z,75.18
2023-01-15T03:01:26.582Z,74.98
2023-01-15T03:04:09.972Z,75.13
2023-01-15T03:06:49.863Z,74.98
2023-01-15T03:09:23.341Z,74.89
2023-01-15T03:12:02.512Z,74.75
2023-01-15T03:14:43.341Z,75.00
2023-01-15T03:17:21.445Z,74.53
2023-01-15T03:19:59.410Z,74.75
2023-01-15T03:22:35.620Z,74.79
2023-01-15T03:25:12.656Z,74.66
2023-01-15T03:27:49.735Z,74.87
2023-01-15T03:30:22.733Z,74.63
2023-01-15T03:32:56.488Z,74.70
2023-01-15T03:35:49.209Z,74.83
2023-01-15T03:38:33.742Z,74.98
2023-01-15T03:41:20.417Z,74.72
2023-01-15T03:44:07.355Z,74.73
2023-01-15T03:46:51.407Z,74.88
2023-01-15T03:49:36.526Z,74.50
2023-01-15T03:52:21.308Z,74.55
2023-01-15T03:55:05.215Z,74.59
2023-01-15T03:57:42.790Z,74.12
2023-01-15T04:00:24.834Z,74.49
2023-01-15T04:03:00.721Z,74.36
2023-01-15T04:05:38.294Z,74.29
2023-01-15T04:08:15.321Z,74.49
2023-01-15T04:10:58.340Z,74.51
2023-01-15T04:13:34.480Z,74.02
2023-01-15T04:16:08.083Z,74.32
2023-01-15T04:18:41.532Z,74.24
2023-01-15T04:21:14.241Z,74.18
2023-01-15T04:23:47.312Z,74.30
2023-01-15T04:26:19.983Z,74.54
2023-01-15T04:28:52.465Z,74.45
2023-01-15T04:31:24.825Z,74.65
2023-01-15T04:33:57.037Z,74.89
2023-01-15T04:36:29.283Z,75.00
2023-01-15T04:39:01.552Z,75.19
2023-01-15T04:41:51.357Z,75.21
2023-01-15T04:44:27.648Z,75.55
2023-01-15T04:47:02.174Z,75.90
2023-01-15T04:49:34.882Z,76.08
2023-01-15T04:52:07.739Z,76.18
2023-01-15T04:54:40.031Z,76.74
2023-01-15T04:57:14.276Z,77.27
2023-01-15T04:59:47.023Z,77.29
2023-01-15T05:02:19.676Z,77.69
2023-01-15T05:04:52.173Z,77.53
2023-01-15T05:07:24.652Z,77.89
2023-01-15T05:09:57.156Z,78.14
2023-01-15T05:12:29.530Z,78.65
2023-01-15T05:15:01.885Z,78.58
2023-01-15T05:17:34.899Z,78.59
2023-01-15T05:20:08.903Z,78.69
2023-01-15T05:22:41.361Z,79.01
2023-01-15T05:25:14.118Z,78.92
2023-01-15T05:27:48.918Z,78.98
2023-01-15T05:30:21.756Z,78.70
2023-01-15T05:32:54.149Z,78.85
2023-01-15T05:35:26.505Z,78.78
2023-01-15T05:37:58.969Z,78.94
2023-01-15T05:40:31.652Z,78.76
2023-01-15T05:43:04.144Z,78.63
2023-01-15T05:45:38.623Z,78.63
2023-01-15T05:48:11.053Z,78.53
2023-01-15T05:50:43.503Z,78.53
2023-01-15T05:53:15.981Z,78.27
2023-01-15T05:55:48.353Z,78.11
2023-01-15T05:58:20.765Z,77.80
2023-01-15T06:01:01.555Z,77.95
2023-01-15T06:03:34.107Z,77.69
2023-01-15T06:06:07.457Z,77.28
2023-01-15T06:08:39.866Z,77.22
2023-01-15T06:11:13.040Z,77.09
2023-01-15T06:13:45.462Z,77.07
2023-01-15T06:16:18.686Z,76.99
2023-01-15T06:18:51.229Z,76.96
2023-01-15T06:21:23.635Z,76.83
2023-01-15T06:23:57.394Z,76.65
2023-01-15T06:26:30.919Z,76.39
2023-01-15T06:29:03.547Z,76.34
2023-01-15T06:31:36.108Z,76.44
2023-01-15T06:34:11.133Z,76.05
2023-01-15T06:36:46.827Z,76.03
2023-01-15T06:39:19.681Z,76.05
2023-01-15T06:42:09.473Z,75.79
2023-01-15T06:44:59.468Z,75.88
2023-01-15T06:47:32.179Z,75.97
2023-01-15T06:50:04.672Z,76.16
2023-01-15T06:52:39.367Z,75.98
2023-01-15T06:55:13.081Z,75.70
2023-01-15T06:57:45.616Z,76.05
2023-01-15T07:00:19.466Z,76.02
2023-01-15T07:02:51.799Z,76.08
2023-01-15T07:05:24.339Z,76.09
2023-01-15T07:07:57.073Z,76.19
2023-01-15T07:10:29.583Z,75.96
2023-01-15T07:13:02.190Z,76.28
2023-01-15T07:15:35.136Z,76.00
2023-01-15T07:18:09.356Z,76.13
2023-01-15T07:20:41.991Z,75.92
2023-01-15T07:23:16.673Z,76.12
2023-01-15T07:25:51.358Z,75.88
2023-01-15T07:28:24.790Z,76.17
2023-01-15T07:31:01.220Z,76.10
2023-01-15T07:33:33.929Z,76.06
2023-01-15T07:36:07.644Z,76.35
2023-01-15T07:38:40.228Z,76.06
2023-01-15T07:41:32.046Z,75.74
2023-01-15T07:44:21.801Z,75.72
2023-01-15T07:47:14.771Z,75.77
2023-01-15T07:49:48.596Z,75.90
2023-01-15T07:52:24.356Z,75.95
2023-01-15T07:55:01.229Z,75.97
2023-01-15T07:57:34.954Z,75.95
2023-01-15T08:00:17.255Z,75.96
2023-01-15T08:02:50.939Z,76.16
2023-01-15T08:05:27.210Z,76.32
2023-01-15T08:08:06.639Z,76.06
2023-01-15T08:10:58.831Z,76.08
2023-01-15T08:13:51.507Z,75.95
2023-01-15T08:16:23.972Z,76.03
2023-01-15T08:18:56.848Z,75.85
2023-01-15T08:21:32.190Z,75.98
2023-01-15T08:24:08.702Z,76.01
2023-01-15T08:26:43.162Z,75.71
2023-01-15T08:29:15.540Z,75.84
2023-01-15T08:31:47.990Z,75.98
2023-01-15T08:34:20.495Z,76.02
2023-01-15T08:36:57.209Z,75.75
2023-01-15T08:39:33.670Z,75.48
2023-01-15T08:42:06.641Z,75.73
2023-01-15T08:44:40.528Z,75.56
2023-01-15T08:47:28.842Z,75.72
2023-01-15T08:50:01.833Z,75.49
2023-01-15T08:52:44.260Z,75.26
2023-01-15T08:55:24.735Z,75.61
2023-01-15T08:57:57.147Z,75.48
2023-01-15T09:00:30.407Z,75.36
2023-01-15T09:03:02.812Z,75.13
2023-01-15T09:05:37.760Z,75.22
2023-01-15T09:08:15.865Z,74.72
2023-01-15T09:10:48.523Z,74.75
2023-01-15T09:13:21.130Z,74.60
2023-01-15T09:15:53.633Z,74.28
2023-01-15T09:18:26.190Z,74.14
2023-01-15T09:21:01.743Z,74.63
2023-01-15T09:23:34.118Z,74.32
2023-01-15T09:26:08.936Z,75.08
2023-01-15T09:28:41.270Z,75.42
2023-01-15T09:31:16.320Z,75.43
2023-01-15T09:33:48.651Z,75.53
2023-01-15T09:36:23.957Z,75.61
2023-01-15T09:38:59.642Z,75.22
2023-01-15T09:42:09.040Z,74.88
2023-01-15T09:45:16.269Z,75.48
2023-01-15T09:48:10.182Z,75.36
2023-01-15T09:50:56.885Z,75.24
2023-01-15T09:53:45.451Z,75.23
2023-01-15T09:56:36.701Z,75.22
2023-01-15T09:59:31.005Z,75.46
2023-01-15T10:02:14.947Z,75.34
2023-01-15T10:04:56.930Z,75.70
2023-01-15T10:07:38.825Z,76.13
2023-01-15T10:10:20.061Z,76.13
2023-01-15T10:13:06.603Z,76.04
2023-01-15T10:15:48.611Z,76.26
2023-01-15T10:18:26.407Z,76.51
2023-01-15T10:21:26.079Z,76.75
2023-01-15T10:24:08.319Z,76.91
2023-01-15T10:26:53.951Z,77.05
2023-01-15T10:29:38.698Z,78.34
2023-01-15T10:32:25.280Z,78.31
2023-01-15T10:35:22.213Z,77.94
2023-01-15T10:38:00.338Z,78.39
2023-01-15T10:41:17.972Z,78.55
2023-01-15T10:43:55.946Z,79.14
2023-01-15T10:46:38.654Z,78.65
2023-01-15T10:49:16.840Z,78.79
2023-01-15T10:51:54.765Z,79.19
2023-01-15T10:54:34.407Z,79.33
2023-01-15T10:57:15.464Z,79.21
2023-01-15T10:59:53.827Z,79.13
2023-01-15T11:02:33.466Z,79.73
2023-01-15T11:05:07.617Z,79.55
2023-01-15T11:08:10.487Z,80.57
2023-01-15T11:10:43.525Z,80.94
2023-01-15T11:13:45.413Z,81.58
2023-01-15T11:16:39.067Z,82.90
2023-01-15T11:19:39.836Z,83.01
2023-01-15T11:22:18.881Z,82.65
2023-01-15T11:24:59.995Z,83.03
2023-01-15T11:27:34.345Z,82.62
2023-01-15T11:30:24.383Z,83.14
2023-01-15T11:33:01.040Z,83.65
2023-01-15T11:35:35.047Z,83.08
2023-01-15T11:38:15.418Z,82.89
2023-01-15T11:40:59.618Z,82.88
2023-01-15T11:43:52.839Z,82.80
2023-01-15T11:46:47.889Z,82.43
2023-01-15T11:49:42.444Z,82.45
2023-01-15T11:52:19.112Z,82.75
2023-01-15T11:54:54.274Z,82.49
2023-01-15T11:57:32.429Z,82.36
2023-01-15T12:00:10.241Z,82.18
2023-01-15T12:02:46.901Z,82.08
2023-01-15T12:05:25.270Z,82.15
2023-01-15T12:07:59.427Z,82.16
2023-01-15T12:10:58.679Z,82.05
2023-01-15T12:13:40.762Z,81.57
2023-01-15T12:16:29.791Z,81.37
2023-01-15T12:19:15.828Z,81.22
2023-01-15T12:22:07.498Z,81.01
2023-01-15T12:24:52.193Z,80.90
2023-01-15T12:27:53.644Z,81.29
2023-01-15T12:30:37.906Z,81.18
2023-01-15T12:33:23.680Z,81.18
2023-01-15T12:36:02.112Z,81.57
2023-01-15T12:38:47.603Z,81.47
2023-01-15T12:41:26.781Z,81.13
2023-01-15T12:44:18.657Z,80.82
2023-01-15T12:46:51.572Z,80.53
2023-01-15T12:49:33.318Z,80.70
2023-01-15T12:52:12.226Z,80.51
2023-01-15T12:55:00.144Z,80.58
2023-01-15T12:57:40.017Z,80.48
2023-01-15T13:00:19.846Z,80.42
2023-01-15T13:03:07.134Z,80.28
2023-01-15T13:05:47.914Z,80.06
2023-01-15T13:08:28.702Z,79.93
2023-01-15T13:10:59.402Z,80.26
2023-01-15T13:13:40.241Z,80.44
2023-01-15T13:16:21.045Z,80.59
2023-01-15T13:19:12.199Z,80.67
2023-01-15T13:21:52.127Z,80.97
2023-01-15T13:24:54.941Z,81.13
2023-01-15T13:27:58.192Z,81.17
2023-01-15T13:30:56.285Z,81.50
2023-01-15T13:33:49.241Z,81.29
2023-01-15T13:36:35.492Z,81.69
2023-01-15T13:39:19.657Z,81.94
2023-01-15T13:42:13.007Z,82.12
2023-01-15T13:44:54.191Z,82.12
2023-01-15T13:47:29.299Z,82.47
2023-01-15T13:50:07.289Z,82.17
2023-01-15T13:52:44.374Z,82.06
2023-01-15T13:55:30.935Z,82.32
2023-01-15T13:58:03.382Z,82.53
2023-01-15T14:00:40.091Z,83.01
2023-01-15T14:06:15.778Z,82.55
2023-01-15T14:08:55.470Z,82.74
2023-01-15T14:11:38.811Z,82.58
2023-01-15T14:14:30.585Z,82.68
2023-01-15T14:17:13.883Z,82.84
2023-01-15T14:20:19.087Z,82.99
2023-01-15T14:23:05.741Z,83.11
2023-01-15T14:25:50.037Z,83.43
2023-01-15T14:28:55.779Z,83.36
2023-01-15T14:31:39.904Z,84.14
2023-01-15T14:34:23.015Z,83.90
2023-01-15T14:37:01.957Z,83.86
2023-01-15T14:39:42.675Z,84.35
2023-01-15T14:42:42.066Z,84.50
2023-01-15T14:45:27.776Z,85.08
2023-01-15T14:48:01.663Z,85.65
2023-01-15T14:50:38.725Z,85.77
2023-01-15T14:53:29.275Z,85.64
2023-01-15T14:56:13.102Z,86.37
2023-01-15T14:58:54.978Z,86.59
2023-01-15T15:01:43.272Z,86.78
2023-01-15T15:04:34.214Z,86.70
2023-01-15T15:07:15.487Z,86.94
2023-01-15T15:09:51.891Z,86.76
2023-01-15T15:12:40.840Z,87.08
2023-01-15T15:15:20.438Z,89.31
2023-01-15T15:18:02.830Z,88.25
2023-01-15T15:20:48.269Z,89.17
2023-01-15T15:23:26.654Z,89.22
2023-01-15T15:26:01.522Z,90.00
2023-01-15T15:28:34.255Z,90.85
2023-01-15T15:31:06.841Z,89.96
2023-01-15T15:33:41.956Z,89.72
2023-01-15T15:36:14.291Z,89.91
2023-01-15T15:38:55.152Z,90.72
2023-01-15T15:41:51.482Z,90.45
2023-01-15T15:44:51.389Z,90.04
2023-01-15T15:47:43.690Z,89.99
2023-01-15T15:50:29.211Z,90.39
2023-01-15T15:53:04.623Z,90.95
2023-01-15T15:55:42.312Z,90.87
2023-01-15T15:58:25.144Z,90.75
2023-01-15T16:00:58.380Z,91.19
2023-01-15T16:03:33.533Z,90.89
2023-01-15T16:06:10.598Z,91.60
2023-01-15T16:08:52.846Z,91.19
2023-01-15T16:11:27.262Z,91.05
2023-01-15T16:14:05.095Z,91.97
2023-01-15T16:16:39.072Z,92.42
2023-01-15T16:19:20.193Z,92.83
2023-01-15T16:21:55.751Z,93.44
2023-01-15T16:24:32.197Z,93.64
2023-01-15T16:27:12.085Z,92.99
2023-01-15T16:29:52.925Z,93.28
2023-01-15T16:32:29.048Z,93.37
2023-01-15T16:35:10.722Z,93.77
2023-01-15T16:37:44.159Z,94.67
2023-01-15T16:40:27.375Z,94.29
2023-01-15T16:43:10.177Z,94.07
2023-01-15T16:46:01.271Z,94.67
2023-01-15T16:48:38.392Z,95.71
2023-01-15T16:51:43.119Z,96.52
2023-01-15T16:54:46.406Z,96.42
2023-01-15T16:57:35.476Z,95.52
2023-01-15T17:00:32.946Z,95.17
2023-01-15T17:03:13.668Z,97.12
2023-01-15T17:05:46.013Z,96.91
2023-01-15T17:08:21.455Z,96.05
2023-01-15T17:11:00.075Z,95.89
2023-01-15T17:13:36.328Z,96.50
2023-01-15T17:16:20.035Z,96.69
2023-01-15T17:18:53.258Z,96.11
2023-01-15T17:21:51.415Z,97.33
2023-01-15T17:24:24.784Z,96.93
2023-01-15T17:26:57.216Z,97.12
2023-01-15T17:29:36.912Z,96.93
2023-01-15T17:32:13.012Z,96.39
2023-01-15T17:34:49.991Z,96.47
2023-01-15T17:37:23.952Z,95.70
2023-01-15T17:39:56.874Z,95.62
2023-01-15T17:42:29.484Z,96.01
2023-01-15T17:45:19.954Z,96.42
2023-01-15T17:48:09.084Z,97.07
2023-01-15T17:50:48.185Z,96.90
2023-01-15T17:53:20.626Z,96.72
2023-01-15T17:56:06.820Z,96.39
2023-01-15T17:59:01.349Z,96.36
2023-01-15T18:01:52.148Z,96.44
2023-01-15T18:04:43.327Z,95.96
2023-01-15T18:07:23.228Z,95.88
2023-01-15T18:09:57.429Z,96.42
2023-01-15T18:12:32.220Z,98.33
2023-01-15T18:15:05.119Z,96.85
2023-01-15T18:17:37.504Z,97.02
2023-01-15T18:20:12.672Z,96.95
2023-01-15T18:22:52.191Z,96.59
2023-01-15T18:25:26.114Z,96.34
2023-01-15T18:27:58.791Z,96.41
2023-01-15T18:30:32.449Z,97.01
2023-01-15T18:33:05.540Z,96.42
2023-01-15T18:35:38.419Z,96.76
2023-01-15T18:38:10.916Z,96.26
2023-01-15T18:40:43.401Z,96.40
2023-01-15T18:43:38.466Z,96.45
2023-01-15T18:46:33.854Z,96.22
2023-01-15T18:49:06.494Z,96.66
2023-01-15T18:51:38.890Z,96.84
2023-01-15T18:54:14.053Z,97.11
2023-01-15T18:56:49.497Z,97.71
2023-01-15T18:59:21.868Z,97.41
2023-01-15T19:01:59.083Z,97.15
2023-01-15T19:04:31.789Z,97.12
2023-01-15T19:07:05.432Z,97.21
2023-01-15T19:09:38.165Z,97.47
2023-01-15T19:12:11.410Z,97.06
2023-01-15T19:15:01.600Z,96.70
2023-01-15T19:17:52.330Z,97.06
2023-01-15T19:20:24.699Z,96.69
2023-01-15T19:22:59.878Z,97.12
2023-01-15T19:25:37.252Z,97.55
2023-01-15T19:28:11.072Z,97.09
2023-01-15T19:31:06.786Z,97.30
2023-01-15T19:33:41.625Z,97.59
2023-01-15T19:36:19.581Z,97.46
2023-01-15T19:38:52.104Z,98.12
2023-01-15T19:41:41.981Z,98.01
2023-01-15T19:44:31.878Z,97.77
2023-01-15T19:47:21.769Z,97.80
2023-01-15T19:50:11.755Z,97.42
2023-01-15T19:52:44.922Z,97.48
2023-01-15T19:55:17.930Z,97.66
2023-01-15T19:57:59.461Z,98.30
2023-01-15T20:00:36.657Z,98.90
2023-01-15T20:03:13.869Z,98.46
2023-01-15T20:05:47.055Z,97.79
2023-01-15T20:08:20.242Z,97.86
2023-01-15T20:10:53.480Z,98.69
2023-01-15T20:13:45.020Z,98.84
2023-01-15T20:16:19.562Z,98.92
2023-01-15T20:18:53.376Z,98.18
2023-01-15T20:21:29.664Z,98.11
2023-01-15T20:24:02.072Z,98.45
2023-01-15T20:26:36.814Z,98.45
2023-01-15T20:29:11.664Z,98.78
2023-01-15T20:31:44.102Z,98.52
2023-01-15T20:34:18.041Z,98.43
2023-01-15T20:36:53.812Z,98.98
2023-01-15T20:39:28.893Z,99.19
2023-01-15T20:42:20.028Z,99.01
2023-01-15T20:44:55.119Z,98.76
2023-01-15T20:47:46.521Z,99.22
2023-01-15T20:50:19.281Z,99.17
2023-01-15T20:52:53.240Z,99.06
2023-01-15T20:55:45.617Z,99.18
2023-01-15T20:58:27.635Z,99.14
2023-01-15T21:01:06.646Z,99.07
2023-01-15T21:03:40.275Z,99.06
2023-01-15T21:06:12.926Z,99.37
2023-01-15T21:08:46.094Z,99.48
2023-01-15T21:11:18.611Z,99.80
2023-01-15T21:13:54.837Z,99.95
2023-01-15T21:16:27.222Z,99.88
2023-01-15T21:19:01.417Z,99.78
2023-01-15T21:21:34.690Z,99.63
2023-01-15T21:24:08.476Z,99.55
2023-01-15T21:26:45.760Z,99.79
2023-01-15T21:29:20.210Z,99.98
2023-01-15T21:31:54.126Z,100.00
2023-01-15T21:34:28.183Z,100.00
2023-01-15T21:37:03.081Z,100.00
2023-01-15T21:39:35.480Z,100.00
2023-01-15T21:42:25.463Z,100.00
2023-01-15T21:44:57.835Z,100.00
2023-01-15T21:47:31.458Z,100.00
2023-01-15T21:50:05.229Z,100.00
2023-01-15T21:52:37.591Z,100.00
2023-01-15T21:55:11.240Z,99.96
2023-01-15T21:57:49.019Z,99.89
2023-01-15T22:00:21.955Z,99.78
2023-01-15T22:03:00.086Z,99.80
2023-01-15T22:05:34.247Z,99.99
2023-01-15T22:08:08.544Z,99.98
2023-01-15T22:10:42.025Z,99.86
2023-01-15T22:13:15.510Z,99.76
2023-01-15T22:15:57.163Z,99.74
2023-01-15T22:18:29.701Z,99.57
2023-01-15T22:21:03.927Z,99.38
2023-01-15T22:23:36.395Z,99.45
2023-01-15T22:26:16.047Z,99.79
2023-01-15T22:28:49.352Z,99.58
2023-01-15T22:31:25.399Z,99.66
2023-01-15T22:33:59.764Z,99.48
2023-01-15T22:36:32.203Z,99.57
2023-01-15T22:39:05.733Z,99.86
2023-01-15T22:41:55.392Z,99.69
2023-01-15T22:44:28.166Z,99.92
2023-01-15T22:47:01.235Z,99.84
2023-01-15T22:49:39.758Z,99.74
2023-01-15T22:52:13.093Z,99.61
2023-01-15T22:54:45.979Z,99.47
2023-01-15T22:57:22.610Z,99.87
2023-01-15T22:59:57.280Z,99.80
2023-01-15T23:02:47.445Z,99.73
2023-01-15T23:05:23.184Z,99.78
2023-01-15T23:07:56.909Z,100.00
2023-01-15T23:10:31.420Z,99.85
2023-01-15T23:13:08.078Z,99.76
2023-01-15T23:15:40.773Z,99.55
2023-01-15T23:18:17.035Z,99.64
2023-01-15T23:20:51.227Z,99.57
2023-01-15T23:23:24.335Z,99.56
2023-01-15T23:26:06.335Z,99.65
2023-01-15T23:28:38.923Z,99.72
2023-01-15T23:31:12.090Z,99.67
2023-01-15T23:33:48.237Z,99.53
2023-01-15T23:36:22.518Z,99.39
2023-01-15T23:38:56.671Z,99.41
2023-01-15T23:41:52.050Z,99.45
2023-01-15T23:44:42.336Z,99.53
2023-01-15T23:47:20.443Z,99.54
2023-01-15T23:50:00.449Z,99.61
2023-01-15T23:52:37.369Z,99.55
2023-01-15T23:55:13.053Z,99.70
2023-01-15T23:57:49.781Z,99.40
